sensor_id;sensor_type;location;lat;lon;timestamp;pressure;altitude;pressure_sealevel;temperature;humidity
62402;BME280;48440;51.224;22.506;2023-04-06T00:00:34;99517.50;;;1.20;55.93
62402;BME280;48440;51.224;22.506;2023-04-06T00:03:00;99513.19;;;1.19;56.48
62402;BME280;48440;51.224;22.506;2023-04-06T00:05:25;99518.16;;;1.22;56.20
62402;BME280;48440;51.224;22.506;2023-04-06T00:07:52;99515.84;;;1.19;56.45
62402;BME280;48440;51.224;22.506;2023-04-06T00:10:19;99507.66;;;1.20;56.56
62402;BME280;48440;51.224;22.506;2023-04-06T00:12:44;99500.25;;;1.22;56.38
62402;BME280;48440;51.224;22.506;2023-04-06T00:15:10;99507.84;;;1.19;56.12
62402;BME280;48440;51.224;22.506;2023-04-06T00:17:36;99511.72;;;1.16;56.37
62402;BME280;48440;51.224;22.506;2023-04-06T00:20:01;99507.38;;;1.15;56.68
62402;BME280;48440;51.224;22.506;2023-04-06T00:22:27;99501.84;;;1.17;56.68
62402;BME280;48440;51.224;22.506;2023-04-06T00:24:52;99495.47;;;1.18;56.51
62402;BME280;48440;51.224;22.506;2023-04-06T00:27:18;99490.97;;;1.18;56.35
62402;BME280;48440;51.224;22.506;2023-04-06T00:29:43;99489.13;;;1.19;56.18
62402;BME280;48440;51.224;22.506;2023-04-06T00:32:09;99488.47;;;1.17;56.51
62402;BME280;48440;51.224;22.506;2023-04-06T00:34:35;99487.00;;;1.14;56.91
62402;BME280;48440;51.224;22.506;2023-04-06T00:37:00;99489.03;;;1.12;56.82
62402;BME280;48440;51.224;22.506;2023-04-06T00:39:26;99485.34;;;1.13;56.62
62402;BME280;48440;51.224;22.506;2023-04-06T00:41:52;99483.50;;;1.14;56.35
62402;BME280;48440;51.224;22.506;2023-04-06T00:44:19;99475.69;;;1.12;56.98
62402;BME280;48440;51.224;22.506;2023-04-06T00:46:45;99473.00;;;1.12;56.72
62402;BME280;48440;51.224;22.506;2023-04-06T00:49:11;99470.69;;;1.09;56.72
62402;BME280;48440;51.224;22.506;2023-04-06T00:51:36;99468.22;;;1.08;57.20
62402;BME280;48440;51.224;22.506;2023-04-06T00:54:02;99468.03;;;1.09;57.12
62402;BME280;48440;51.224;22.506;2023-04-06T00:56:27;99468.03;;;1.09;56.85
62402;BME280;48440;51.224;22.506;2023-04-06T00:58:53;99463.78;;;1.15;56.55
62402;BME280;48440;51.224;22.506;2023-04-06T01:01:18;99455.31;;;1.11;56.76
62402;BME280;48440;51.224;22.506;2023-04-06T01:03:45;99457.97;;;1.11;56.76
62402;BME280;48440;51.224;22.506;2023-04-06T01:06:13;99462.31;;;1.12;56.90
62402;BME280;48440;51.224;22.506;2023-04-06T01:08:42;99454.56;;;1.17;56.79
62402;BME280;48440;51.224;22.506;2023-04-06T01:11:07;99463.78;;;1.15;56.90
62402;BME280;48440;51.224;22.506;2023-04-06T01:13:33;99462.31;;;1.12;57.10
62402;BME280;48440;51.224;22.506;2023-04-06T01:15:59;99466.81;;;1.12;56.98
62402;BME280;48440;51.224;22.506;2023-04-06T01:18:28;99462.50;;;1.11;57.27
62402;BME280;48440;51.224;22.506;2023-04-06T01:20:54;99452.63;;;1.11;57.16
62402;BME280;48440;51.224;22.506;2023-04-06T01:23:19;99448.94;;;1.12;57.14
62402;BME280;48440;51.224;22.506;2023-04-06T01:25:45;99451.81;;;1.11;57.34
62402;BME280;48440;51.224;22.506;2023-04-06T01:28:10;99450.59;;;1.13;57.05
62402;BME280;48440;51.224;22.506;2023-04-06T01:30:36;99448.13;;;1.12;57.11
62402;BME280;48440;51.224;22.506;2023-04-06T01:33:01;99449.41;;;1.16;56.77
62402;BME280;48440;51.224;22.506;2023-04-06T01:35:27;99448.94;;;1.12;56.57
62402;BME280;48440;51.224;22.506;2023-04-06T01:37:53;99438.25;;;1.12;56.95
62402;BME280;48440;51.224;22.506;2023-04-06T01:40:19;99433.53;;;1.14;56.95
62402;BME280;48440;51.224;22.506;2023-04-06T01:42:46;99436.41;;;1.13;56.93
62402;BME280;48440;51.224;22.506;2023-04-06T01:45:11;99433.34;;;1.16;57.33
62402;BME280;48440;51.224;22.506;2023-04-06T01:47:37;99432.53;;;1.15;57.23
62402;BME280;48440;51.224;22.506;2023-04-06T01:50:02;99429.84;;;1.15;57.15
62402;BME280;48440;51.224;22.506;2023-04-06T01:52:31;99436.41;;;1.13;56.77
62402;BME280;48440;51.224;22.506;2023-04-06T01:54:56;99422.41;;;1.11;57.38
62402;BME280;48440;51.224;22.506;2023-04-06T01:57:22;99415.03;;;1.13;57.17
62402;BME280;48440;51.224;22.506;2023-04-06T01:59:47;99412.78;;;1.16;57.47
62402;BME280;48440;51.224;22.506;2023-04-06T02:02:12;99408.66;;;1.14;57.35
62402;BME280;48440;51.224;22.506;2023-04-06T02:04:38;99396.31;;;1.13;57.64
62402;BME280;48440;51.224;22.506;2023-04-06T02:07:03;99397.31;;;1.12;57.70
62402;BME280;48440;51.224;22.506;2023-04-06T02:09:29;99392.44;;;1.15;57.68
62402;BME280;48440;51.224;22.506;2023-04-06T02:11:55;99391.97;;;1.12;57.42
62402;BME280;48440;51.224;22.506;2023-04-06T02:14:20;99400.19;;;1.10;57.76
62402;BME280;48440;51.224;22.506;2023-04-06T02:16:46;99393.38;;;1.08;57.68
62402;BME280;48440;51.224;22.506;2023-04-06T02:19:11;99391.53;;;1.08;57.56
62402;BME280;48440;51.224;22.506;2023-04-06T02:21:37;99383.31;;;1.10;57.50
62402;BME280;48440;51.224;22.506;2023-04-06T02:24:02;99389.50;;;1.10;57.64
62402;BME280;48440;51.224;22.506;2023-04-06T02:26:28;99383.72;;;1.07;58.08
62402;BME280;48440;51.224;22.506;2023-04-06T02:28:53;99379.44;;;1.12;57.88
62402;BME280;48440;51.224;22.506;2023-04-06T02:31:19;99375.69;;;1.07;57.84
62402;BME280;48440;51.224;22.506;2023-04-06T02:33:44;99382.50;;;1.09;58.21
62402;BME280;48440;51.224;22.506;2023-04-06T02:36:10;99373.06;;;1.13;58.12
62402;BME280;48440;51.224;22.506;2023-04-06T02:38:35;99367.28;;;1.10;58.52
62402;BME280;48440;51.224;22.506;2023-04-06T02:41:01;99365.00;;;1.07;58.71
62402;BME280;48440;51.224;22.506;2023-04-06T02:43:26;99371.16;;;1.07;58.70
62402;BME280;48440;51.224;22.506;2023-04-06T02:45:52;99364.34;;;1.05;58.88
62402;BME280;48440;51.224;22.506;2023-04-06T02:48:17;99362.50;;;1.05;58.85
62402;BME280;48440;51.224;22.506;2023-04-06T02:50:42;99357.81;;;1.07;58.83
62402;BME280;48440;51.224;22.506;2023-04-06T02:53:08;99358.63;;;1.08;58.71
62402;BME280;48440;51.224;22.506;2023-04-06T02:55:33;99358.44;;;1.09;58.91
62402;BME280;48440;51.224;22.506;2023-04-06T02:57:59;99361.31;;;1.08;58.78
62402;BME280;48440;51.224;22.506;2023-04-06T03:00:24;99350.81;;;1.06;58.75
62402;BME280;48440;51.224;22.506;2023-04-06T03:02:50;99355.50;;;1.04;59.42
62402;BME280;48440;51.224;22.506;2023-04-06T03:05:15;99354.72;;;1.04;59.16
62402;BME280;48440;51.224;22.506;2023-04-06T03:07:41;99351.41;;;1.01;59.18
62402;BME280;48440;51.224;22.506;2023-04-06T03:10:07;99350.81;;;1.06;59.34
62402;BME280;48440;51.224;22.506;2023-04-06T03:12:32;99345.88;;;1.03;59.33
62402;BME280;48440;51.224;22.506;2023-04-06T03:14:58;99358.41;;;1.02;59.59
62402;BME280;48440;51.224;22.506;2023-04-06T03:17:23;99350.38;;;1.02;59.17
62402;BME280;48440;51.224;22.506;2023-04-06T03:19:49;99351.00;;;1.05;59.59
62402;BME280;48440;51.224;22.506;2023-04-06T03:22:14;99354.50;;;1.05;59.67
62402;BME280;48440;51.224;22.506;2023-04-06T03:24:40;99348.97;;;1.07;59.45
62402;BME280;48440;51.224;22.506;2023-04-06T03:27:05;99344.03;;;1.04;59.63
62402;BME280;48440;51.224;22.506;2023-04-06T03:29:31;99344.63;;;1.06;59.62
62402;BME280;48440;51.224;22.506;2023-04-06T03:31:56;99349.78;;;1.07;59.76
62402;BME280;48440;51.224;22.506;2023-04-06T03:34:22;99338.22;;;1.00;60.73
62402;BME280;48440;51.224;22.506;2023-04-06T03:36:47;99337.22;;;1.01;60.82
62402;BME280;48440;51.224;22.506;2023-04-06T03:39:13;99346.47;;;1.05;60.52
62402;BME280;48440;51.224;22.506;2023-04-06T03:41:38;99345.88;;;1.03;60.78
62402;BME280;48440;51.224;22.506;2023-04-06T03:44:05;99339.69;;;1.02;61.15
62402;BME280;48440;51.224;22.506;2023-04-06T03:46:30;99335.78;;;1.05;61.46
62402;BME280;48440;51.224;22.506;2023-04-06T03:48:56;99345.03;;;1.02;62.00
62402;BME280;48440;51.224;22.506;2023-04-06T03:51:21;99339.25;;;0.99;62.07
62402;BME280;48440;51.224;22.506;2023-04-06T03:53:47;99340.47;;;0.96;62.86
62402;BME280;48440;51.224;22.506;2023-04-06T03:56:12;99345.63;;;0.98;62.74
62402;BME280;48440;51.224;22.506;2023-04-06T03:58:38;99339.63;;;0.96;63.50
62402;BME280;48440;51.224;22.506;2023-04-06T04:01:03;99322.13;;;0.93;64.10
62402;BME280;48440;51.224;22.506;2023-04-06T04:03:29;99325.00;;;0.92;64.16
62402;BME280;48440;51.224;22.506;2023-04-06T04:05:54;99328.50;;;0.92;64.71
62402;BME280;48440;51.224;22.506;2023-04-06T04:08:24;99323.78;;;0.94;64.48
62402;BME280;48440;51.224;22.506;2023-04-06T04:10:49;99309.97;;;0.91;64.67
62402;BME280;48440;51.224;22.506;2023-04-06T04:13:15;99319.00;;;0.90;64.54
62402;BME280;48440;51.224;22.506;2023-04-06T04:15:40;99318.75;;;0.85;65.41
62402;BME280;48440;51.224;22.506;2023-04-06T04:18:06;99308.44;;;0.82;65.83
62402;BME280;48440;51.224;22.506;2023-04-06T04:20:31;99311.50;;;0.79;66.29
62402;BME280;48440;51.224;22.506;2023-04-06T04:22:57;99301.44;;;0.81;66.02
62402;BME280;48440;51.224;22.506;2023-04-06T04:25:23;99309.47;;;0.81;66.08
62402;BME280;48440;51.224;22.506;2023-04-06T04:27:48;99303.91;;;0.76;66.97
62402;BME280;48440;51.224;22.506;2023-04-06T04:30:14;99317.25;;;0.76;66.85
62402;BME280;48440;51.224;22.506;2023-04-06T04:32:40;99310.91;;;0.77;67.29
62402;BME280;48440;51.224;22.506;2023-04-06T04:35:06;99305.34;;;0.78;67.08
62402;BME280;48440;51.224;22.506;2023-04-06T04:37:31;99311.56;;;0.85;66.91
62402;BME280;48440;51.224;22.506;2023-04-06T04:39:57;99299.22;;;0.84;66.85
62402;BME280;48440;51.224;22.506;2023-04-06T04:42:22;99307.81;;;0.80;67.20
62402;BME280;48440;51.224;22.506;2023-04-06T04:44:48;99298.78;;;0.81;67.53
62402;BME280;48440;51.224;22.506;2023-04-06T04:47:13;99298.78;;;0.81;67.81
62402;BME280;48440;51.224;22.506;2023-04-06T04:49:38;99289.31;;;0.78;67.94
62402;BME280;48440;51.224;22.506;2023-04-06T04:52:04;99278.00;;;0.76;67.90
62402;BME280;48440;51.224;22.506;2023-04-06T04:54:29;99278.00;;;0.76;68.01
62402;BME280;48440;51.224;22.506;2023-04-06T04:56:55;99277.19;;;0.76;68.08
62402;BME280;48440;51.224;22.506;2023-04-06T04:59:20;99269.19;;;0.82;67.81
62402;BME280;48440;51.224;22.506;2023-04-06T05:01:46;99271.03;;;0.82;68.07
62402;BME280;48440;51.224;22.506;2023-04-06T05:04:11;99259.53;;;0.81;68.21
62402;BME280;48440;51.224;22.506;2023-04-06T05:06:37;99260.41;;;0.88;67.60
62402;BME280;48440;51.224;22.506;2023-04-06T05:09:02;99268.81;;;0.85;67.74
62402;BME280;48440;51.224;22.506;2023-04-06T05:11:27;99275.44;;;0.89;68.27
62402;BME280;48440;51.224;22.506;2023-04-06T05:13:53;99273.53;;;0.83;68.36
62402;BME280;48440;51.224;22.506;2023-04-06T05:16:19;99266.72;;;0.81;68.07
62402;BME280;48440;51.224;22.506;2023-04-06T05:18:45;99270.41;;;0.80;68.41
62402;BME280;48440;51.224;22.506;2023-04-06T05:21:11;99266.16;;;0.85;67.87
62402;BME280;48440;51.224;22.506;2023-04-06T05:23:36;99266.53;;;0.82;68.18
62402;BME280;48440;51.224;22.506;2023-04-06T05:26:02;99256.84;;;0.81;68.63
62402;BME280;48440;51.224;22.506;2023-04-06T05:28:27;99251.91;;;0.78;68.65
62402;BME280;48440;51.224;22.506;2023-04-06T05:30:56;99251.09;;;0.78;69.08
62402;BME280;48440;51.224;22.506;2023-04-06T05:33:22;99252.34;;;0.82;68.87
62402;BME280;48440;51.224;22.506;2023-04-06T05:35:48;99256.84;;;0.81;68.85
62402;BME280;48440;51.224;22.506;2023-04-06T05:38:13;99255.66;;;0.84;68.99
62402;BME280;48440;51.224;22.506;2023-04-06T05:40:38;99249.28;;;0.85;68.63
62402;BME280;48440;51.224;22.506;2023-04-06T05:43:06;99253.63;;;0.86;69.11
62402;BME280;48440;51.224;22.506;2023-04-06T05:45:32;99245.16;;;0.82;69.55
62402;BME280;48440;51.224;22.506;2023-04-06T05:47:58;99248.84;;;0.81;69.72
62402;BME280;48440;51.224;22.506;2023-04-06T05:50:23;99255.41;;;0.79;69.70
62402;BME280;48440;51.224;22.506;2023-04-06T05:52:48;99249.28;;;0.85;69.76
62402;BME280;48440;51.224;22.506;2023-04-06T05:55:14;99254.00;;;0.83;69.89
62402;BME280;48440;51.224;22.506;2023-04-06T05:57:39;99256.91;;;0.88;69.92
62402;BME280;48440;51.224;22.506;2023-04-06T06:00:06;99254.13;;;0.96;69.89
62402;BME280;48440;51.224;22.506;2023-04-06T06:02:34;99247.19;;;1.01;70.01
62402;BME280;48440;51.224;22.506;2023-04-06T06:04:59;99247.19;;;1.08;69.59
62402;BME280;48440;51.224;22.506;2023-04-06T06:07:25;99247.00;;;1.10;69.69
62402;BME280;48440;51.224;22.506;2023-04-06T06:09:50;99245.75;;;1.06;69.63
62402;BME280;48440;51.224;22.506;2023-04-06T06:12:16;99243.25;;;1.04;70.43
62402;BME280;48440;51.224;22.506;2023-04-06T06:14:42;99241.03;;;1.08;70.29
62402;BME280;48440;51.224;22.506;2023-04-06T06:17:08;99229.28;;;1.02;70.22
62402;BME280;48440;51.224;22.506;2023-04-06T06:19:33;99228.66;;;1.00;70.87
62402;BME280;48440;51.224;22.506;2023-04-06T06:21:59;99216.50;;;0.97;70.80
62402;BME280;48440;51.224;22.506;2023-04-06T06:24:26;99224.84;;;0.88;71.28
62402;BME280;48440;51.224;22.506;2023-04-06T06:26:52;99220.72;;;0.85;71.94
62402;BME280;48440;51.224;22.506;2023-04-06T06:29:18;99220.72;;;0.85;71.83
62402;BME280;48440;51.224;22.506;2023-04-06T06:31:43;99209.41;;;0.83;71.58
62402;BME280;48440;51.224;22.506;2023-04-06T06:34:09;99205.72;;;0.84;72.10
62402;BME280;48440;51.224;22.506;2023-04-06T06:36:35;99201.84;;;0.87;72.35
62402;BME280;48440;51.224;22.506;2023-04-06T06:39:01;99211.88;;;0.85;72.16
62402;BME280;48440;51.224;22.506;2023-04-06T06:41:28;99210.03;;;0.85;72.57
62402;BME280;48440;51.224;22.506;2023-04-06T06:43:54;99199.16;;;0.87;72.45
62402;BME280;48440;51.224;22.506;2023-04-06T06:46:20;99208.63;;;0.89;72.23
62402;BME280;48440;51.224;22.506;2023-04-06T06:48:45;99208.81;;;0.88;72.17
62402;BME280;48440;51.224;22.506;2023-04-06T06:51:11;99203.28;;;0.89;72.51
62402;BME280;48440;51.224;22.506;2023-04-06T06:53:37;99192.22;;;0.92;72.30
62402;BME280;48440;51.224;22.506;2023-04-06T06:56:03;99193.03;;;0.93;72.04
62402;BME280;48440;51.224;22.506;2023-04-06T06:58:28;99185.66;;;0.95;72.19
62402;BME280;48440;51.224;22.506;2023-04-06T07:00:57;99191.00;;;0.95;72.35
62402;BME280;48440;51.224;22.506;2023-04-06T07:03:23;99182.22;;;1.01;72.21
62402;BME280;48440;51.224;22.506;2023-04-06T07:05:49;99181.19;;;1.02;72.08
62402;BME280;48440;51.224;22.506;2023-04-06T07:08:19;99172.16;;;1.03;72.21
62402;BME280;48440;51.224;22.506;2023-04-06T07:10:44;99158.78;;;1.03;72.36
62402;BME280;48440;51.224;22.506;2023-04-06T07:13:10;99157.34;;;1.07;72.65
62402;BME280;48440;51.224;22.506;2023-04-06T07:15:36;99147.72;;;1.13;72.01
62402;BME280;48440;51.224;22.506;2023-04-06T07:18:02;99154.09;;;1.12;72.41
62402;BME280;48440;51.224;22.506;2023-04-06T07:20:27;99138.88;;;1.12;72.65
62402;BME280;48440;51.224;22.506;2023-04-06T07:22:53;99148.75;;;1.12;72.71
62402;BME280;48440;51.224;22.506;2023-04-06T07:25:19;99147.09;;;1.11;73.11
62402;BME280;48440;51.224;22.506;2023-04-06T07:27:44;99146.03;;;1.05;73.29
62402;BME280;48440;51.224;22.506;2023-04-06T07:30:10;99132.72;;;1.12;72.88
62402;BME280;48440;51.224;22.506;2023-04-06T07:32:36;99139.69;;;1.13;73.18
62402;BME280;48440;51.224;22.506;2023-04-06T07:35:02;99139.69;;;1.13;73.20
62402;BME280;48440;51.224;22.506;2023-04-06T07:37:27;99139.66;;;1.06;73.54
62402;BME280;48440;51.224;22.506;2023-04-06T07:39:53;99137.00;;;1.06;73.95
62402;BME280;48440;51.224;22.506;2023-04-06T07:42:18;99143.78;;;1.09;74.08
62402;BME280;48440;51.224;22.506;2023-04-06T07:44:44;99137.00;;;1.06;74.06
62402;BME280;48440;51.224;22.506;2023-04-06T07:47:10;99140.69;;;1.05;74.67
62402;BME280;48440;51.224;22.506;2023-04-06T07:49:35;99134.94;;;1.01;75.11
62402;BME280;48440;51.224;22.506;2023-04-06T07:52:01;99140.28;;;1.01;75.33
62402;BME280;48440;51.224;22.506;2023-04-06T07:54:28;99141.09;;;1.02;74.85
62402;BME280;48440;51.224;22.506;2023-04-06T07:56:53;99139.44;;;1.01;75.93
62402;BME280;48440;51.224;22.506;2023-04-06T07:59:19;99116.84;;;1.04;75.33
62402;BME280;48440;51.224;22.506;2023-04-06T08:01:44;99116.84;;;1.04;75.48
62402;BME280;48440;51.224;22.506;2023-04-06T08:04:09;99126.50;;;1.05;75.30
62402;BME280;48440;51.224;22.506;2023-04-06T08:06:35;99114.38;;;1.02;75.75
62402;BME280;48440;51.224;22.506;2023-04-06T08:09:01;99118.69;;;1.03;75.88
62402;BME280;48440;51.224;22.506;2023-04-06T08:11:27;99123.22;;;1.02;75.68
62402;BME280;48440;51.224;22.506;2023-04-06T08:13:53;99129.78;;;1.00;76.04
62402;BME280;48440;51.224;22.506;2023-04-06T08:16:18;99130.19;;;0.97;76.35
62402;BME280;48440;51.224;22.506;2023-04-06T08:18:44;99109.03;;;1.02;76.27
62402;BME280;48440;51.224;22.506;2023-04-06T08:21:10;99116.41;;;1.00;76.11
62402;BME280;48440;51.224;22.506;2023-04-06T08:23:36;99127.31;;;0.98;76.46
62402;BME280;48440;51.224;22.506;2023-04-06T08:26:01;99123.81;;;1.05;76.71
62402;BME280;48440;51.224;22.506;2023-04-06T08:28:27;99121.97;;;1.05;76.12
62402;BME280;48440;51.224;22.506;2023-04-06T08:30:52;99123.22;;;1.02;76.63
62402;BME280;48440;51.224;22.506;2023-04-06T08:33:17;99113.75;;;1.07;76.84
62402;BME280;48440;51.224;22.506;2023-04-06T08:35:43;99109.88;;;1.09;76.51
62402;BME280;48440;51.224;22.506;2023-04-06T08:38:08;99117.09;;;1.15;76.29
62402;BME280;48440;51.224;22.506;2023-04-06T08:40:38;99105.34;;;1.10;76.69
62402;BME280;48440;51.224;22.506;2023-04-06T08:43:06;99105.34;;;1.10;76.87
62402;BME280;48440;51.224;22.506;2023-04-06T08:45:34;99094.88;;;1.15;76.46
62402;BME280;48440;51.224;22.506;2023-04-06T08:48:00;99095.91;;;1.14;76.74
62402;BME280;48440;51.224;22.506;2023-04-06T08:50:29;99093.66;;;1.17;76.55
62402;BME280;48440;51.224;22.506;2023-04-06T08:52:55;99069.41;;;1.19;77.18
62402;BME280;48440;51.224;22.506;2023-04-06T08:55:22;99076.41;;;1.20;76.28
62402;BME280;48440;51.224;22.506;2023-04-06T08:57:50;99116.13;;;1.23;75.77
62402;BME280;48440;51.224;22.506;2023-04-06T09:00:19;99103.75;;;1.15;76.49
62402;BME280;48440;51.224;22.506;2023-04-06T09:02:45;99114.44;;;1.15;76.64
62402;BME280;48440;51.224;22.506;2023-04-06T09:05:12;99105.59;;;1.15;76.75
62402;BME280;48440;51.224;22.506;2023-04-06T09:07:38;99114.03;;;1.18;76.79
62402;BME280;48440;51.224;22.506;2023-04-06T09:10:05;99113.41;;;1.16;76.61
62402;BME280;48440;51.224;22.506;2023-04-06T09:12:31;99106.84;;;1.19;77.06
62402;BME280;48440;51.224;22.506;2023-04-06T09:14:58;99110.53;;;1.18;77.37
62402;BME280;48440;51.224;22.506;2023-04-06T09:17:26;99109.50;;;1.19;76.85
62402;BME280;48440;51.224;22.506;2023-04-06T09:19:52;99111.56;;;1.17;76.92
62402;BME280;48440;51.224;22.506;2023-04-06T09:22:18;99101.06;;;1.15;77.47
62402;BME280;48440;51.224;22.506;2023-04-06T09:24:50;99096.97;;;1.19;77.61
62402;BME280;48440;51.224;22.506;2023-04-06T09:27:15;99091.22;;;1.22;78.10
62402;BME280;48440;51.224;22.506;2023-04-06T09:29:42;99083.84;;;1.24;77.10
62402;BME280;48440;51.224;22.506;2023-04-06T09:32:09;99086.94;;;1.28;77.31
62402;BME280;48440;51.224;22.506;2023-04-06T09:34:42;99096.19;;;1.25;77.62
62402;BME280;48440;51.224;22.506;2023-04-06T09:37:18;99102.34;;;1.26;77.70
62402;BME280;48440;51.224;22.506;2023-04-06T09:39:45;99084.66;;;1.31;77.59
62402;BME280;48440;51.224;22.506;2023-04-06T09:42:26;99085.09;;;1.28;77.92
62402;BME280;48440;51.224;22.506;2023-04-06T09:44:51;99082.81;;;1.32;77.64
62402;BME280;48440;51.224;22.506;2023-04-06T09:47:17;99082.22;;;1.30;78.56
62402;BME280;48440;51.224;22.506;2023-04-06T09:49:46;99075.22;;;1.29;78.35
62402;BME280;48440;51.224;22.506;2023-04-06T09:52:13;99049.72;;;1.33;78.34
62402;BME280;48440;51.224;22.506;2023-04-06T09:54:41;99043.72;;;1.31;78.81
62402;BME280;48440;51.224;22.506;2023-04-06T09:57:15;99028.75;;;1.36;78.84
62402;BME280;48440;51.224;22.506;2023-04-06T10:08:11;99086.94;;;1.34;78.37
62402;BME280;48440;51.224;22.506;2023-04-06T10:10:38;99117.19;;;1.28;78.94
62402;BME280;48440;51.224;22.506;2023-04-06T10:13:04;99134.44;;;1.26;79.56
62402;BME280;48440;51.224;22.506;2023-04-06T10:15:30;99130.50;;;1.22;79.71
62402;BME280;48440;51.224;22.506;2023-04-06T10:18:00;99136.28;;;1.25;79.84
62402;BME280;48440;51.224;22.506;2023-04-06T10:20:51;99112.03;;;1.27;79.70
62402;BME280;48440;51.224;22.506;2023-04-06T10:23:34;99103.19;;;1.33;79.55
62402;BME280;48440;51.224;22.506;2023-04-06T10:26:01;99084.28;;;1.34;79.68
62402;BME280;48440;51.224;22.506;2023-04-06T10:28:35;99075.03;;;1.37;79.12
62402;BME280;48440;51.224;22.506;2023-04-06T10:31:05;99049.94;;;1.38;79.98
62402;BME280;48440;51.224;22.506;2023-04-06T10:33:31;99028.97;;;1.42;79.94
62402;BME280;48440;51.224;22.506;2023-04-06T10:35:56;99037.00;;;1.42;80.20
62402;BME280;48440;51.224;22.506;2023-04-06T10:38:36;99039.03;;;1.40;80.46
62402;BME280;48440;51.224;22.506;2023-04-06T10:41:07;99018.06;;;1.43;80.61
62402;BME280;48440;51.224;22.506;2023-04-06T10:43:34;99034.53;;;1.47;80.25
62402;BME280;48440;51.224;22.506;2023-04-06T10:46:00;99043.19;;;1.49;80.20
62402;BME280;48440;51.224;22.506;2023-04-06T10:48:43;99020.75;;;1.43;80.08
62402;BME280;48440;51.224;22.506;2023-04-06T10:51:13;99002.66;;;1.45;80.58
62402;BME280;48440;51.224;22.506;2023-04-06T10:53:41;99005.13;;;1.47;80.39
62402;BME280;48440;51.224;22.506;2023-04-06T10:56:13;98981.47;;;1.50;80.18
62402;BME280;48440;51.224;22.506;2023-04-06T10:58:47;98968.94;;;1.51;80.57
62402;BME280;48440;51.224;22.506;2023-04-06T11:01:15;98980.03;;;1.54;80.46
62402;BME280;48440;51.224;22.506;2023-04-06T11:03:49;98964.81;;;1.55;80.31
62402;BME280;48440;51.224;22.506;2023-04-06T11:06:41;98965.44;;;1.50;80.14
62402;BME280;48440;51.224;22.506;2023-04-06T11:09:11;98988.47;;;1.51;80.38
62402;BME280;48440;51.224;22.506;2023-04-06T11:11:38;98995.25;;;1.54;80.56
62402;BME280;48440;51.224;22.506;2023-04-06T11:14:04;99002.47;;;1.53;81.14
62402;BME280;48440;51.224;22.506;2023-04-06T11:16:31;98998.75;;;1.54;80.92
62402;BME280;48440;51.224;22.506;2023-04-06T11:19:05;98995.88;;;1.49;81.05
62402;BME280;48440;51.224;22.506;2023-04-06T11:21:45;98986.63;;;1.52;81.65
62402;BME280;48440;51.224;22.506;2023-04-06T11:24:24;98991.56;;;1.55;81.02
62402;BME280;48440;51.224;22.506;2023-04-06T11:26:55;98961.91;;;1.56;81.08
62402;BME280;48440;51.224;22.506;2023-04-06T11:29:23;98972.00;;;1.61;80.66
62402;BME280;48440;51.224;22.506;2023-04-06T11:31:52;98985.56;;;1.59;80.78
62402;BME280;48440;51.224;22.506;2023-04-06T11:34:21;98982.28;;;1.57;81.49
62402;BME280;48440;51.224;22.506;2023-04-06T11:36:49;98970.75;;;1.57;81.16
62402;BME280;48440;51.224;22.506;2023-04-06T11:39:22;98971.81;;;1.56;81.25
62402;BME280;48440;51.224;22.506;2023-04-06T11:41:50;98965.19;;;1.58;81.28
62402;BME280;48440;51.224;22.506;2023-04-06T11:44:26;98974.69;;;1.61;80.82
62402;BME280;48440;51.224;22.506;2023-04-06T11:47:02;98981.47;;;1.63;81.22
62402;BME280;48440;51.224;22.506;2023-04-06T11:49:29;98967.47;;;1.61;81.39
62402;BME280;48440;51.224;22.506;2023-04-06T11:51:55;98965.00;;;1.60;81.54
62402;BME280;48440;51.224;22.506;2023-04-06T11:54:32;98977.34;;;1.61;81.31
62402;BME280;48440;51.224;22.506;2023-04-06T11:56:57;98985.16;;;1.62;81.05
62402;BME280;48440;51.224;22.506;2023-04-06T11:59:23;98982.50;;;1.62;81.08
62402;BME280;48440;51.224;22.506;2023-04-06T12:01:48;98994.22;;;1.61;81.06
62402;BME280;48440;51.224;22.506;2023-04-06T12:04:17;98990.53;;;1.56;81.71
62402;BME280;48440;51.224;22.506;2023-04-06T12:06:42;98988.44;;;1.58;81.79
62402;BME280;48440;51.224;22.506;2023-04-06T12:09:19;98989.72;;;1.55;81.93
62402;BME280;48440;51.224;22.506;2023-04-06T12:12:08;98975.06;;;1.58;81.41
62402;BME280;48440;51.224;22.506;2023-04-06T12:14:34;98981.03;;;1.60;81.77
62402;BME280;48440;51.224;22.506;2023-04-06T12:17:11;98979.63;;;1.64;81.53
62402;BME280;48440;51.224;22.506;2023-04-06T12:19:49;98986.63;;;1.65;81.25
62402;BME280;48440;51.224;22.506;2023-04-06T12:22:20;98984.97;;;1.64;81.67
62402;BME280;48440;51.224;22.506;2023-04-06T12:24:45;98989.09;;;1.66;81.95
62402;BME280;48440;51.224;22.506;2023-04-06T12:27:15;98977.97;;;1.63;81.78
62402;BME280;48440;51.224;22.506;2023-04-06T12:29:41;98977.75;;;1.64;82.12
62402;BME280;48440;51.224;22.506;2023-04-06T12:32:07;98990.31;;;1.64;81.50
62402;BME280;48440;51.224;22.506;2023-04-06T12:34:33;98985.59;;;1.66;81.65
62402;BME280;48440;51.224;22.506;2023-04-06T12:36:59;98989.09;;;1.66;81.48
62402;BME280;48440;51.224;22.506;2023-04-06T12:39:25;98977.34;;;1.61;81.91
62402;BME280;48440;51.224;22.506;2023-04-06T12:41:52;98983.72;;;1.60;81.66
62402;BME280;48440;51.224;22.506;2023-04-06T12:44:17;98982.06;;;1.59;82.45
62402;BME280;48440;51.224;22.506;2023-04-06T12:46:43;98972.19;;;1.59;82.61
62402;BME280;48440;51.224;22.506;2023-04-06T12:49:08;98973.66;;;1.62;82.43
62402;BME280;48440;51.224;22.506;2023-04-06T12:51:34;98964.59;;;1.63;82.29
62402;BME280;48440;51.224;22.506;2023-04-06T12:53:59;98961.50;;;1.66;82.25
62402;BME280;48440;51.224;22.506;2023-04-06T12:56:25;98965.84;;;1.67;82.48
62402;BME280;48440;51.224;22.506;2023-04-06T12:58:51;98966.25;;;1.70;82.48
62402;BME280;48440;51.224;22.506;2023-04-06T13:01:17;98962.53;;;1.72;82.08
62402;BME280;48440;51.224;22.506;2023-04-06T13:03:43;98950.41;;;1.69;83.00
62402;BME280;48440;51.224;22.506;2023-04-06T13:06:09;98941.56;;;1.68;83.08